Ala Coushatta Ind Res, Texas
Current Conditions -  °F | °C
As of 5:55 AM on Friday 19 Dec 2014 (Local Time) from K6R3 Reporting Station
Light Rain Light Rain  
Wind Chill: 55°   Ceiling: 400
Heat Index: 55°   Visibility: 5mi
Dew Point: 55°   Wind: 0mph
Humidity: 99%   Direction: NA
Pressure: 30.04"   Gusts: NA
Location:  30.7078°N, 94.8036°W
Report Text: K6R3 191155Z AUTO 00000KT 5SM -RA OVC004 13/13 A3004 RMK AO2 LTG DSNT NW P0009 60068 70078 T01260125 10131 20125
Loading
Personal Weather Stations






























Interactive Weather Map New forecast layout! Learn more

10-Day Weather Forecast

Advertisements
Track Severe Weather on mobile